Texas General Land Office
 Texas General Land Office
 George P. Bush, Commissioner

 Oil Spill Prevention
 & Response

Texas Automated Buoy System
Real Time Ocean Observations
Supporting Oil Spill Prevention and
Response since 1995
Geochemical and Environmental Research Group

NOAA - NDBC Buoy 42035 -- Texas Automated Buoy System

NBDC Buoy 42035
Galveston
Conditions at 06/25/2019 10:20 UTC (06/25/2019 05:20 CDT)
29° 14.7830'N   94° 24.5000'W
22NM East of Galveston, TX
Anemometer height: 5m
Water Depth: 52 feet (16 meters)
Wind: 7.0 m/s (13.6 kts)
          From 150°T (SSE)
Wind Gust: 8.00 m/s (15.6 kts) Pressure: 1014.1 mb (29.95 inHg)
Air Temp: 29°C (84 °F) Dewpoint: 28°C (82°F) Relative Humidity: 94%
Sea Surf Temp: 28 °C (83 °F) Wave Height: 1.2m (3.9 ft) Wave Period: 6
  


IMPORTANT: Notice to Mariners


Today's Velocity Data

  Buoy     Date      Time     East   North   Speed  Dir(°T) Wave Ht WvPer  Num
|  ID  |          |  (UTC) | (m/s) | (m/s) | (m/s) |(FROM) |  (m)  | secs| pts |
+======+==========+========+=======+=======+=======+=======+=======+=====+=====+
  42035 06/22/2019 00:10:00    2.74   -7.52    8.00     160     0.0     0     1
  42035 06/22/2019 00:20:00    2.74   -7.52    8.00     160     1.4     6     1
  42035 06/22/2019 00:30:00    3.08   -8.46    9.00     160     0.0     0     1
  42035 06/22/2019 00:40:00    2.74   -7.52    8.00     160     0.0     0     1
  42035 06/22/2019 00:50:00    2.74   -7.52    8.00     160     0.0     0     1
  42035 06/22/2019 06:00:00    2.16   -7.74    8.03     164     0.3     1    31
  42035 06/22/2019 06:10:00    2.74   -7.52    8.00     160     0.0     0     1
  42035 06/22/2019 06:20:00    3.08   -8.46    9.00     160     1.4     6     1
  42035 06/22/2019 06:30:00    3.08   -8.46    9.00     160     0.0     0     1
  42035 06/22/2019 06:40:00    3.08   -8.46    9.00     160     0.0     0     1
  42035 06/22/2019 06:50:00    3.08   -8.46    9.00     160     0.0     0     1
  42035 06/23/2019 06:30:00    1.06   -9.23    9.29     173     0.3     1    31
  42035 06/23/2019 18:00:00    2.58   -9.97   10.30     166     0.0     0     4
  42035 06/24/2019 00:10:00    0.98   -7.91    7.97     173     0.0     0     3
  42035 06/24/2019 06:30:00    0.78   -8.43    8.47     175     0.0     0     2
  42035 06/24/2019 12:00:00    1.10   -9.57    9.63     173     0.0     0     3
  42035 06/24/2019 12:10:00   -1.39   -7.88    8.00     190     0.0     0     1
  42035 06/24/2019 12:20:00   -2.57   -3.06    4.00     220     0.0     0     1
  42035 06/24/2019 12:30:00    5.81   15.97   17.00      20     0.0     0     1
  42035 06/24/2019 12:40:00    5.81   15.97   17.00      20     0.0     0     1
  42035 06/24/2019 12:50:00    5.13   14.10   15.00      20     0.0     0     1
  42035 06/24/2019 18:00:00    7.84    8.36   11.46      43     0.4     1    31
  42035 06/24/2019 18:10:00   12.00    0.00   12.00      90     0.0     0     1
  42035 06/24/2019 18:20:00   12.00    0.00   12.00      90     1.5     5     1
  42035 06/24/2019 18:30:00   12.00    0.00   12.00      90     0.0     0     1
  42035 06/24/2019 18:40:00   10.83   -1.91   11.00     100     0.0     0     1
  42035 06/24/2019 18:50:00   11.82   -2.08   12.00     100     0.0     0     1
  42035 06/25/2019 00:00:00    4.88  -11.14   12.16     156     0.3     1    30
  42035 06/25/2019 00:10:00   -5.00   -8.66   10.00     210     0.0     0     1
  42035 06/25/2019 00:20:00   -3.76  -10.34   11.00     200     1.3     4     1
  42035 06/25/2019 00:30:00   -1.74   -9.85   10.00     190     0.0     0     1
  42035 06/25/2019 00:40:00    0.00  -10.00   10.00     180     0.0     0     1
  42035 06/25/2019 00:50:00   -3.08   -8.46    9.00     200     0.0     0     1
  42035 06/25/2019 06:00:00    0.69   -3.62    3.68     169     0.2     1    31
  42035 06/25/2019 06:10:00    2.82   -1.03    3.00     110     0.0     0     1
  42035 06/25/2019 06:20:00    2.95   -0.52    3.00     100     1.2     5     1
  42035 06/25/2019 06:30:00    2.95   -0.52    3.00     100     0.0     0     1
  42035 06/25/2019 06:40:00    3.00    0.00    3.00      90     0.0     0     1
  42035 06/25/2019 06:50:00    2.82    1.03    3.00      70     0.0     0     1